Terminal Aerodrome Forecast
Issued by NWS

Home | Current Version | Previous Version | Text Only | Print | Product List | Glossary On
Versions: 1 2 3 4 5 6 7 8 9 10 11 12 13 14 15 16 17 18 19 20 21 22 23 24 25 26 27 28 29 30 31 32 33 34 35 36 37 38 39 40 41 42 43 44
000
FTAK31 PAFA 221131
TAFAQT
TAF
PAQT 221131Z 2212/2312 07018KT P6SM OVC007
     FM221500 07018KT 4SM -SHSN BR OVC007
     FM222100 07018KT 6SM -SHSNRA BR OVC007=

USA.gov is the U.S. government's official web portal to all federal, state and local government web resources and services.